Time;durP1;ratioP1;P1;durP2;ratioP2;P2;SDS_P1;SDS_P2;PMS_P1;PMS_P2;Temp;Humidity;BMP_temperature;BMP_pressure;BME280_temperature;BME280_humidity;BME280_pressure;Samples;Min_cycle;Max_cycle;Signal;HPM_P1;HPM_P2
2023/06/03 00:00:47;;;;;;;0.90;0.90;;;;;;;;;;5069077;28;20207;-60
2023/06/03 00:03:14;;;;;;;4.50;1.30;;;;;;;;;;5084768;28;20229;-60
2023/06/03 00:05:41;;;;;;;1.27;0.60;;;;;;;;;;5087512;28;20671;-61
2023/06/03 00:08:08;;;;;;;1.35;0.90;;;;;;;;;;5075571;28;20203;-59
2023/06/03 00:10:36;;;;;;;1.50;0.70;;;;;;;;;;5093693;28;20278;-59
2023/06/03 00:13:03;;;;;;;2.35;0.93;;;;;;;;;;5084067;28;20215;-59
2023/06/03 00:15:30;;;;;;;0.90;0.90;;;;;;;;;;5068850;28;20215;-61
2023/06/03 00:17:57;;;;;;;1.00;0.87;;;;;;;;;;5068745;28;20685;-59
2023/06/03 00:20:25;;;;;;;0.90;0.90;;;;;;;;;;5068652;28;20291;-59
2023/06/03 00:22:52;;;;;;;2.70;0.82;;;;;;;;;;5074376;28;20759;-60
2023/06/03 00:25:19;;;;;;;0.80;0.80;;;;;;;;;;5071425;28;20215;-59
2023/06/03 00:27:49;;;;;;;0.80;0.80;;;;;;;;;;5068441;28;20211;-59
2023/06/03 00:30:16;;;;;;;0.90;0.90;;;;;;;;;;5074198;28;20210;-59
2023/06/03 00:32:43;;;;;;;2.47;1.20;;;;;;;;;;5075270;28;20240;-60
2023/06/03 00:35:10;;;;;;;3.70;0.82;;;;;;;;;;5088658;28;20218;-59
2023/06/03 00:37:37;;;;;;;0.80;0.80;;;;;;;;;;5085452;28;20222;-60
2023/06/03 00:40:04;;;;;;;0.77;0.77;;;;;;;;;;5087340;28;20612;-59
2023/06/03 00:42:31;;;;;;;1.03;0.90;;;;;;;;;;5078222;28;20329;-60
2023/06/03 00:45:00;;;;;;;1.25;0.65;;;;;;;;;;5078418;28;20240;-59
2023/06/03 00:47:27;;;;;;;1.95;0.80;;;;;;;;;;5088133;28;20460;-59
2023/06/03 00:49:54;;;;;;;1.10;1.10;;;;;;;;;;5070584;28;20214;-59
2023/06/03 00:52:23;;;;;;;6.45;1.20;;;;;;;;;;5067947;28;20556;-60
2023/06/03 00:54:51;;;;;;;0.83;0.83;;;;;;;;;;5080888;28;20676;-60
2023/06/03 00:57:21;;;;;;;1.15;1.15;;;;;;;;;;5087569;28;20237;-60
2023/06/03 00:59:48;;;;;;;1.70;1.25;;;;;;;;;;5064945;28;20214;-60
2023/06/03 01:02:17;;;;;;;0.68;0.68;;;;;;;;;;5072321;28;20862;-60
2023/06/03 01:04:46;;;;;;;1.13;0.80;;;;;;;;;;5086216;28;20207;-59
2023/06/03 01:07:15;;;;;;;2.63;1.27;;;;;;;;;;5074911;28;20731;-60
2023/06/03 01:09:48;;;;;;;1.93;1.30;;;;;;;;;;5072507;28;20257;-60
2023/06/03 01:12:21;;;;;;;2.37;1.30;;;;;;;;;;5096441;28;20213;-60
2023/06/03 01:14:52;;;;;;;1.13;1.00;;;;;;;;;;5086946;28;20226;-59
2023/06/03 01:17:21;;;;;;;4.47;1.05;;;;;;;;;;5079401;28;20226;-60
2023/06/03 01:19:51;;;;;;;2.23;0.90;;;;;;;;;;5086438;28;20323;-59
2023/06/03 01:22:18;;;;;;;3.97;1.20;;;;;;;;;;5077338;28;20313;-60
2023/06/03 01:24:48;;;;;;;2.17;0.88;;;;;;;;;;5086628;28;20649;-60
2023/06/03 01:27:15;;;;;;;0.90;0.90;;;;;;;;;;5086298;28;20206;-60
2023/06/03 01:29:43;;;;;;;3.33;1.00;;;;;;;;;;5084217;28;20206;-60
2023/06/03 01:32:11;;;;;;;1.00;1.00;;;;;;;;;;5078726;28;20206;-59
2023/06/03 01:34:39;;;;;;;5.30;1.30;;;;;;;;;;5087481;28;20210;-60
2023/06/03 01:37:06;;;;;;;0.50;0.50;;;;;;;;;;5086382;28;20334;-60
2023/06/03 01:39:33;;;;;;;1.37;0.90;;;;;;;;;;5088096;28;20268;-60
2023/06/03 01:42:02;;;;;;;0.93;0.93;;;;;;;;;;5073169;28;20246;-60
2023/06/03 01:44:29;;;;;;;2.83;1.10;;;;;;;;;;5080100;28;20214;-60
2023/06/03 01:46:56;;;;;;;2.13;1.20;;;;;;;;;;5084459;28;20211;-60
2023/06/03 01:49:23;;;;;;;1.63;1.07;;;;;;;;;;5087371;28;20217;-60
2023/06/03 01:51:51;;;;;;;1.30;1.20;;;;;;;;;;5086738;28;20218;-60
2023/06/03 01:54:20;;;;;;;0.73;0.73;;;;;;;;;;5086440;28;20226;-60
2023/06/03 01:56:48;;;;;;;1.87;1.07;;;;;;;;;;5085142;28;20244;-60
2023/06/03 01:59:16;;;;;;;2.37;1.30;;;;;;;;;;5087084;28;20206;-59
2023/06/03 02:01:43;;;;;;;0.73;0.73;;;;;;;;;;5084985;28;20240;-60
2023/06/03 02:04:11;;;;;;;4.47;1.23;;;;;;;;;;5085505;28;20229;-60
2023/06/03 02:06:38;;;;;;;1.23;1.10;;;;;;;;;;5077269;28;20199;-60
2023/06/03 02:09:05;;;;;;;0.50;0.50;;;;;;;;;;5082151;28;20256;-59
2023/06/03 02:11:32;;;;;;;4.33;1.47;;;;;;;;;;5091726;28;20207;-59
2023/06/03 02:13:59;;;;;;;1.13;1.13;;;;;;;;;;5086322;28;20241;-60
2023/06/03 02:16:27;;;;;;;1.10;1.10;;;;;;;;;;5083883;28;20229;-60
2023/06/03 02:18:54;;;;;;;2.40;1.17;;;;;;;;;;5085497;28;20581;-59
2023/06/03 02:21:21;;;;;;;1.17;1.07;;;;;;;;;;5085990;28;20230;-60
2023/06/03 02:23:49;;;;;;;2.97;1.33;;;;;;;;;;5083873;28;20297;-60
2023/06/03 02:26:16;;;;;;;0.90;0.90;;;;;;;;;;5085507;28;20198;-59
2023/06/03 02:28:43;;;;;;;1.13;1.13;;;;;;;;;;5086245;28;20215;-60
2023/06/03 02:31:10;;;;;;;1.70;1.40;;;;;;;;;;5086532;28;20285;-60
2023/06/03 02:33:39;;;;;;;2.43;1.27;;;;;;;;;;5085772;28;20214;-59
2023/06/03 02:36:07;;;;;;;4.33;1.27;;;;;;;;;;5079749;28;20202;-59
2023/06/03 02:38:34;;;;;;;3.23;1.50;;;;;;;;;;5075539;28;20206;-59
2023/06/03 02:41:01;;;;;;;1.80;1.60;;;;;;;;;;5090556;28;20211;-60
2023/06/03 02:43:28;;;;;;;2.23;1.50;;;;;;;;;;5083185;28;20238;-59
2023/06/03 02:45:55;;;;;;;2.00;1.17;;;;;;;;;;5075414;28;20807;-60
2023/06/03 02:48:22;;;;;;;1.63;1.27;;;;;;;;;;5085851;28;20221;-59
2023/06/03 02:50:51;;;;;;;1.57;1.07;;;;;;;;;;5085683;28;20630;-60
2023/06/03 02:53:18;;;;;;;1.10;1.10;;;;;;;;;;5065761;28;20275;-59
2023/06/03 02:55:45;;;;;;;1.50;1.50;;;;;;;;;;5065362;28;20213;-59
2023/06/03 02:58:15;;;;;;;0.83;0.83;;;;;;;;;;5082101;28;20354;-59
2023/06/03 03:00:42;;;;;;;1.50;1.40;;;;;;;;;;5085792;28;20308;-60
2023/06/03 03:03:10;;;;;;;1.27;1.17;;;;;;;;;;5083525;28;20221;-60
2023/06/03 03:05:38;;;;;;;4.67;1.80;;;;;;;;;;5065673;28;20249;-59
2023/06/03 03:08:06;;;;;;;1.67;1.57;;;;;;;;;;5065531;28;20715;-59
2023/06/03 03:10:33;;;;;;;5.17;1.70;;;;;;;;;;5080980;28;20275;-59
2023/06/03 03:13:00;;;;;;;4.90;1.60;;;;;;;;;;5087205;28;20218;-60
2023/06/03 03:15:27;;;;;;;6.43;1.60;;;;;;;;;;5085978;28;20214;-59
2023/06/03 03:17:54;;;;;;;1.37;1.00;;;;;;;;;;5085781;28;20230;-59
2023/06/03 03:20:21;;;;;;;1.47;1.30;;;;;;;;;;5085779;28;20223;-59
2023/06/03 03:22:48;;;;;;;2.37;1.10;;;;;;;;;;5085196;28;20207;-60
2023/06/03 03:25:17;;;;;;;2.43;1.20;;;;;;;;;;5085486;28;20214;-60
2023/06/03 03:27:47;;;;;;;8.57;0.80;;;;;;;;;;5086969;28;20260;-60
2023/06/03 03:30:14;;;;;;;1.80;1.47;;;;;;;;;;5090126;28;20301;-61
2023/06/03 03:32:41;;;;;;;3.13;1.20;;;;;;;;;;5075885;28;20290;-60
2023/06/03 03:35:13;;;;;;;3.43;1.00;;;;;;;;;;5090686;28;20218;-60
2023/06/03 03:37:40;;;;;;;2.67;1.37;;;;;;;;;;5084963;28;20232;-60
2023/06/03 03:40:13;;;;;;;1.20;1.20;;;;;;;;;;5088120;28;20260;-60
2023/06/03 03:42:41;;;;;;;3.13;1.57;;;;;;;;;;5069869;28;20265;-60
2023/06/03 03:45:17;;;;;;;1.00;1.00;;;;;;;;;;5088841;28;20624;-61
2023/06/03 03:47:44;;;;;;;0.73;0.50;;;;;;;;;;5089443;28;20212;-60
2023/06/03 03:50:17;;;;;;;3.20;1.50;;;;;;;;;;5089505;28;20195;-61
2023/06/03 03:52:44;;;;;;;1.43;1.17;;;;;;;;;;5083789;28;20218;-60
2023/06/03 03:55:11;;;;;;;1.87;1.10;;;;;;;;;;5088375;28;20210;-60
2023/06/03 03:57:39;;;;;;;1.37;1.27;;;;;;;;;;5089343;28;20715;-60
2023/06/03 04:00:09;;;;;;;1.77;1.30;;;;;;;;;;5088709;28;20198;-62
2023/06/03 04:02:42;;;;;;;1.93;0.80;;;;;;;;;;5089278;28;20566;-60
2023/06/03 04:05:15;;;;;;;1.03;1.00;;;;;;;;;;5088114;28;20214;-60
2023/06/03 04:07:46;;;;;;;7.23;1.33;;;;;;;;;;5075768;28;20628;-60
2023/06/03 04:10:13;;;;;;;2.40;1.00;;;;;;;;;;5085280;28;20214;-59
2023/06/03 04:12:40;;;;;;;0.90;0.83;;;;;;;;;;5078408;28;20218;-59
2023/06/03 04:15:09;;;;;;;1.33;1.23;;;;;;;;;;5072459;28;20207;-59
2023/06/03 04:17:37;;;;;;;1.63;1.53;;;;;;;;;;5088936;28;20222;-59
2023/06/03 04:20:09;;;;;;;4.40;1.33;;;;;;;;;;5084057;28;20210;-59
2023/06/03 04:22:36;;;;;;;5.20;1.20;;;;;;;;;;5084662;28;20206;-59
2023/06/03 04:25:08;;;;;;;2.20;1.30;;;;;;;;;;5082194;28;20202;-60
2023/06/03 04:27:35;;;;;;;1.53;1.00;;;;;;;;;;5088663;28;20633;-59
2023/06/03 04:30:04;;;;;;;1.30;1.20;;;;;;;;;;5089998;28;20698;-60
2023/06/03 04:32:32;;;;;;;1.73;1.00;;;;;;;;;;5086666;28;20206;-59
2023/06/03 04:34:59;;;;;;;1.63;1.07;;;;;;;;;;5085817;28;20271;-58
2023/06/03 04:37:27;;;;;;;1.07;1.07;;;;;;;;;;5086918;28;20730;-59
2023/06/03 04:39:54;;;;;;;0.80;0.80;;;;;;;;;;5086223;28;20293;-58
2023/06/03 04:42:22;;;;;;;0.80;0.80;;;;;;;;;;5084454;28;20769;-59
2023/06/03 04:44:49;;;;;;;1.37;1.03;;;;;;;;;;5070314;28;20224;-59
2023/06/03 04:47:17;;;;;;;0.67;0.67;;;;;;;;;;5069245;28;20203;-59
2023/06/03 04:49:47;;;;;;;1.87;0.97;;;;;;;;;;5085785;28;20210;-59
2023/06/03 04:52:14;;;;;;;2.33;1.03;;;;;;;;;;5074710;28;20713;-58
2023/06/03 04:54:42;;;;;;;1.33;1.10;;;;;;;;;;5089692;28;20711;-58
2023/06/03 04:57:09;;;;;;;1.60;0.90;;;;;;;;;;5086603;28;20230;-59
2023/06/03 04:59:36;;;;;;;2.50;1.00;;;;;;;;;;5089391;28;20210;-60
2023/06/03 05:02:03;;;;;;;1.43;1.00;;;;;;;;;;5089543;28;20287;-58
2023/06/03 05:04:30;;;;;;;0.77;0.70;;;;;;;;;;5089142;28;20210;-59
2023/06/03 05:07:00;;;;;;;0.50;0.50;;;;;;;;;;5088984;28;20202;-59
2023/06/03 05:09:27;;;;;;;1.02;0.90;;;;;;;;;;5089312;28;20206;-59
2023/06/03 05:11:55;;;;;;;6.18;1.00;;;;;;;;;;5088107;28;20645;-59
2023/06/03 05:14:22;;;;;;;0.80;0.73;;;;;;;;;;5077963;28;20638;-59
2023/06/03 05:16:49;;;;;;;0.73;0.73;;;;;;;;;;5087431;28;20702;-59
2023/06/03 05:19:16;;;;;;;0.70;0.70;;;;;;;;;;5088097;28;20206;-58
2023/06/03 05:21:43;;;;;;;3.27;1.03;;;;;;;;;;5086442;28;20230;-59
2023/06/03 05:24:12;;;;;;;0.90;0.90;;;;;;;;;;5088063;28;20214;-59
2023/06/03 05:26:39;;;;;;;0.75;0.75;;;;;;;;;;5071571;28;20206;-58
2023/06/03 05:29:06;;;;;;;1.58;0.75;;;;;;;;;;5087704;28;20618;-59
2023/06/03 05:31:33;;;;;;;5.00;1.33;;;;;;;;;;5087718;28;20217;-58
2023/06/03 05:34:00;;;;;;;0.80;0.80;;;;;;;;;;5087576;28;20294;-58
2023/06/03 05:36:27;;;;;;;0.67;0.30;;;;;;;;;;5073877;28;20221;-59
2023/06/03 05:38:54;;;;;;;3.45;1.00;;;;;;;;;;5081621;28;20226;-59
2023/06/03 05:41:23;;;;;;;0.60;0.60;;;;;;;;;;5081855;28;20264;-58
2023/06/03 05:43:50;;;;;;;1.15;0.73;;;;;;;;;;5075957;28;20237;-59
2023/06/03 05:46:17;;;;;;;0.93;0.80;;;;;;;;;;5084826;28;20291;-58
2023/06/03 05:48:44;;;;;;;2.78;0.60;;;;;;;;;;5079594;28;20206;-58
2023/06/03 05:51:11;;;;;;;0.70;0.70;;;;;;;;;;5070445;28;20305;-58
2023/06/03 05:53:43;;;;;;;2.30;0.90;;;;;;;;;;5087431;28;20316;-59
2023/06/03 05:56:11;;;;;;;0.90;0.90;;;;;;;;;;5087347;28;20621;-59
2023/06/03 05:58:39;;;;;;;0.77;0.77;;;;;;;;;;5087800;28;20291;-59
2023/06/03 06:01:06;;;;;;;1.75;0.63;;;;;;;;;;5081998;28;20586;-59
2023/06/03 06:03:33;;;;;;;3.00;0.90;;;;;;;;;;5087855;28;20614;-59
2023/06/03 06:06:01;;;;;;;1.63;0.98;;;;;;;;;;5082518;28;20210;-59
2023/06/03 06:08:28;;;;;;;0.68;0.68;;;;;;;;;;5075262;28;20231;-58
2023/06/03 06:10:55;;;;;;;1.50;0.77;;;;;;;;;;5087126;28;20210;-59
2023/06/03 06:13:22;;;;;;;0.63;0.57;;;;;;;;;;5085924;28;20203;-59
2023/06/03 06:16:00;;;;;;;0.65;0.65;;;;;;;;;;5068832;28;20210;-59
2023/06/03 06:18:29;;;;;;;3.75;0.80;;;;;;;;;;5066909;28;20775;-59
2023/06/03 06:20:56;;;;;;;0.70;0.68;;;;;;;;;;5084999;28;20746;-59
2023/06/03 06:23:23;;;;;;;3.50;0.90;;;;;;;;;;5087634;28;20210;-59
2023/06/03 06:25:51;;;;;;;2.03;0.80;;;;;;;;;;5087262;28;20214;-59
2023/06/03 06:28:19;;;;;;;1.17;0.52;;;;;;;;;;5087720;28;20206;-59
2023/06/03 06:30:46;;;;;;;0.85;0.65;;;;;;;;;;5074373;28;20289;-57
2023/06/03 06:33:16;;;;;;;0.68;0.68;;;;;;;;;;5086722;28;20614;-57
2023/06/03 06:35:43;;;;;;;0.73;0.60;;;;;;;;;;5078004;28;20207;-59
2023/06/03 06:38:10;;;;;;;0.63;0.63;;;;;;;;;;5074430;28;20908;-57
2023/06/03 06:40:37;;;;;;;0.82;0.80;;;;;;;;;;5082757;28;20202;-58
2023/06/03 06:43:05;;;;;;;0.60;0.52;;;;;;;;;;5067946;28;20239;-59
2023/06/03 06:45:34;;;;;;;0.82;0.82;;;;;;;;;;5067958;28;20298;-59
2023/06/03 06:48:04;;;;;;;0.93;0.77;;;;;;;;;;5066351;28;20207;-57
2023/06/03 06:50:44;;;;;;;0.70;0.70;;;;;;;;;;5071544;28;20372;-57
2023/06/03 06:53:11;;;;;;;0.63;0.63;;;;;;;;;;5085988;28;20267;-57
2023/06/03 06:55:45;;;;;;;0.40;0.40;;;;;;;;;;5074410;28;20223;-58
2023/06/03 06:58:13;;;;;;;0.60;0.60;;;;;;;;;;5066328;28;20230;-58
2023/06/03 07:00:40;;;;;;;0.70;0.70;;;;;;;;;;5072943;28;20210;-59
2023/06/03 07:03:08;;;;;;;0.60;0.60;;;;;;;;;;5083531;28;20206;-59
2023/06/03 07:05:35;;;;;;;1.17;0.85;;;;;;;;;;5083229;28;20210;-59
2023/06/03 07:08:03;;;;;;;1.25;0.90;;;;;;;;;;5083914;28;20493;-59
2023/06/03 07:10:30;;;;;;;0.55;0.55;;;;;;;;;;5085684;28;20699;-59
2023/06/03 07:12:57;;;;;;;0.70;0.70;;;;;;;;;;5086590;28;20759;-59
2023/06/03 07:15:24;;;;;;;2.20;0.40;;;;;;;;;;5087007;28;20209;-59
2023/06/03 07:17:51;;;;;;;0.73;0.73;;;;;;;;;;5075345;28;20226;-59
2023/06/03 07:20:20;;;;;;;0.60;0.60;;;;;;;;;;5075509;28;20227;-59
2023/06/03 07:22:48;;;;;;;0.65;0.65;;;;;;;;;;5070293;28;20306;-59
2023/06/03 07:25:24;;;;;;;1.20;0.90;;;;;;;;;;5070019;28;20214;-59
2023/06/03 07:27:52;;;;;;;1.38;1.05;;;;;;;;;;5072196;28;20206;-59
2023/06/03 07:30:19;;;;;;;0.90;0.88;;;;;;;;;;5079332;28;20216;-59
2023/06/03 07:32:46;;;;;;;1.55;0.65;;;;;;;;;;5070078;28;20211;-59
2023/06/03 07:35:14;;;;;;;0.98;0.98;;;;;;;;;;5076176;28;20214;-59
2023/06/03 07:37:41;;;;;;;1.48;0.70;;;;;;;;;;5079845;28;20213;-59
2023/06/03 07:40:14;;;;;;;0.45;0.45;;;;;;;;;;5089598;28;20283;-59
2023/06/03 07:42:44;;;;;;;0.60;0.60;;;;;;;;;;5073891;28;20246;-59
2023/06/03 07:45:11;;;;;;;0.50;0.50;;;;;;;;;;5069362;28;21000;-59
2023/06/03 07:47:38;;;;;;;0.60;0.60;;;;;;;;;;5085257;28;20614;-58
2023/06/03 07:50:05;;;;;;;1.20;0.95;;;;;;;;;;5088071;28;20214;-63
2023/06/03 07:52:36;;;;;;;0.70;0.70;;;;;;;;;;5089822;28;20263;-59
2023/06/03 07:55:07;;;;;;;0.90;0.90;;;;;;;;;;5087543;28;20211;-58
2023/06/03 07:57:38;;;;;;;0.85;0.80;;;;;;;;;;5089473;28;20268;-59
2023/06/03 08:00:08;;;;;;;0.80;0.80;;;;;;;;;;5088232;28;20259;-59
2023/06/03 08:02:37;;;;;;;2.63;0.90;;;;;;;;;;5069647;28;20642;-58
2023/06/03 08:05:05;;;;;;;1.50;0.80;;;;;;;;;;5076055;28;20298;-62
2023/06/03 08:07:33;;;;;;;0.75;0.75;;;;;;;;;;5088714;28;20214;-59
2023/06/03 08:10:00;;;;;;;0.75;0.75;;;;;;;;;;5088713;28;20293;-60
2023/06/03 08:12:30;;;;;;;0.90;0.90;;;;;;;;;;5086719;28;20299;-59
2023/06/03 08:14:57;;;;;;;0.98;0.98;;;;;;;;;;5081876;28;20253;-59
2023/06/03 08:17:37;;;;;;;0.65;0.65;;;;;;;;;;5086579;28;20215;-60
2023/06/03 08:20:08;;;;;;;1.85;0.80;;;;;;;;;;5076640;28;20237;-57
2023/06/03 08:22:37;;;;;;;1.10;0.88;;;;;;;;;;5089172;28;20206;-57
2023/06/03 08:25:05;;;;;;;0.93;0.93;;;;;;;;;;5088952;28;20210;-57
2023/06/03 08:27:33;;;;;;;1.52;1.20;;;;;;;;;;5088774;28;20217;-59
2023/06/03 08:30:03;;;;;;;0.65;0.65;;;;;;;;;;5087335;28;20581;-57
2023/06/03 08:32:33;;;;;;;4.07;0.95;;;;;;;;;;5089287;28;20224;-57
2023/06/03 08:35:00;;;;;;;0.88;0.88;;;;;;;;;;5086262;28;20233;-58
2023/06/03 08:37:28;;;;;;;1.00;1.00;;;;;;;;;;5068602;28;20215;-60
2023/06/03 08:39:55;;;;;;;1.00;1.00;;;;;;;;;;5079100;28;20348;-58
2023/06/03 08:42:24;;;;;;;1.50;1.10;;;;;;;;;;5088504;28;20360;-58
2023/06/03 08:44:58;;;;;;;1.10;0.90;;;;;;;;;;5083585;28;20203;-58
2023/06/03 08:47:32;;;;;;;0.95;0.95;;;;;;;;;;5078732;28;20571;-58
2023/06/03 08:50:01;;;;;;;0.73;0.73;;;;;;;;;;5068478;28;20251;-59
2023/06/03 08:52:31;;;;;;;5.82;1.35;;;;;;;;;;5068847;28;20268;-59
2023/06/03 08:55:01;;;;;;;1.88;1.10;;;;;;;;;;5069095;28;20376;-59
2023/06/03 08:57:29;;;;;;;1.15;1.15;;;;;;;;;;5068239;28;20226;-59
2023/06/03 08:59:56;;;;;;;1.55;0.90;;;;;;;;;;5065279;28;20230;-59
2023/06/03 09:02:24;;;;;;;1.00;1.00;;;;;;;;;;5070213;28;20203;-59
2023/06/03 09:04:51;;;;;;;0.90;0.82;;;;;;;;;;5084254;28;20236;-59
2023/06/03 09:07:21;;;;;;;1.00;1.00;;;;;;;;;;5086258;28;20271;-59
2023/06/03 09:09:50;;;;;;;0.80;0.80;;;;;;;;;;5083654;28;20301;-59
2023/06/03 09:12:17;;;;;;;1.35;1.30;;;;;;;;;;5085758;28;20485;-59
2023/06/03 09:14:45;;;;;;;0.80;0.80;;;;;;;;;;5082699;28;20214;-59
2023/06/03 09:17:12;;;;;;;1.10;1.10;;;;;;;;;;5087882;28;20329;-59
2023/06/03 09:19:40;;;;;;;1.30;1.30;;;;;;;;;;5088210;28;20295;-58
2023/06/03 09:22:08;;;;;;;1.17;1.15;;;;;;;;;;5078889;28;20959;-58
2023/06/03 09:24:36;;;;;;;1.88;1.48;;;;;;;;;;5067520;28;20221;-58
2023/06/03 09:27:04;;;;;;;1.42;1.42;;;;;;;;;;5067129;28;20755;-58
2023/06/03 09:29:31;;;;;;;1.20;0.90;;;;;;;;;;5067851;28;20237;-58
2023/06/03 09:31:58;;;;;;;2.17;1.17;;;;;;;;;;5067174;28;20613;-58
2023/06/03 09:34:27;;;;;;;1.60;1.17;;;;;;;;;;5067792;28;20222;-59
2023/06/03 09:36:54;;;;;;;1.15;1.15;;;;;;;;;;5067363;28;20292;-59
2023/06/03 09:39:32;;;;;;;2.08;1.20;;;;;;;;;;5069352;28;20284;-59
2023/06/03 09:42:01;;;;;;;1.10;1.10;;;;;;;;;;5076594;28;20249;-59
2023/06/03 09:44:38;;;;;;;1.17;1.05;;;;;;;;;;5087940;28;20214;-59
2023/06/03 09:47:05;;;;;;;2.03;1.17;;;;;;;;;;5088024;28;20210;-59
2023/06/03 09:49:32;;;;;;;1.42;1.33;;;;;;;;;;5088175;28;20293;-59
2023/06/03 09:51:59;;;;;;;1.75;1.52;;;;;;;;;;5087546;28;20217;-59
2023/06/03 09:54:26;;;;;;;1.30;1.30;;;;;;;;;;5084745;28;21017;-60
2023/06/03 09:56:55;;;;;;;2.05;1.70;;;;;;;;;;5082221;28;20218;-60
2023/06/03 09:59:25;;;;;;;2.13;1.27;;;;;;;;;;5086604;28;20275;-60
2023/06/03 10:01:52;;;;;;;1.00;1.00;;;;;;;;;;5081819;28;20214;-60
2023/06/03 10:04:20;;;;;;;1.65;1.60;;;;;;;;;;5086565;28;20203;-60
2023/06/03 10:06:48;;;;;;;1.20;1.10;;;;;;;;;;5085838;28;20194;-60
2023/06/03 10:09:19;;;;;;;2.70;1.10;;;;;;;;;;5086931;28;20221;-60
2023/06/03 10:11:47;;;;;;;2.63;1.20;;;;;;;;;;5086992;28;20314;-60
2023/06/03 10:14:15;;;;;;;1.40;1.40;;;;;;;;;;5086792;28;20305;-60
2023/06/03 10:16:44;;;;;;;2.20;1.50;;;;;;;;;;5083712;28;20601;-60
2023/06/03 10:19:22;;;;;;;1.20;1.20;;;;;;;;;;5085778;28;20330;-60
2023/06/03 10:21:49;;;;;;;1.75;1.65;;;;;;;;;;5071748;28;20286;-60
2023/06/03 10:24:16;;;;;;;1.50;1.40;;;;;;;;;;5085934;28;20206;-59
2023/06/03 10:26:43;;;;;;;2.08;1.30;;;;;;;;;;5083475;28;20263;-59
2023/06/03 10:29:10;;;;;;;1.40;1.30;;;;;;;;;;5085818;28;20202;-59
2023/06/03 10:31:39;;;;;;;2.15;1.10;;;;;;;;;;5086269;28;20213;-60
2023/06/03 10:34:08;;;;;;;1.15;1.15;;;;;;;;;;5087376;28;20263;-59
2023/06/03 10:36:35;;;;;;;1.90;1.50;;;;;;;;;;5071169;28;20214;-59
2023/06/03 10:39:04;;;;;;;1.75;1.65;;;;;;;;;;5070795;28;20806;-60
2023/06/03 10:41:31;;;;;;;1.20;1.17;;;;;;;;;;5082807;28;20218;-60
2023/06/03 10:43:58;;;;;;;1.38;1.27;;;;;;;;;;5075298;28;20257;-60
2023/06/03 10:46:26;;;;;;;3.80;1.55;;;;;;;;;;5091265;28;20218;-61
2023/06/03 10:48:53;;;;;;;1.30;1.30;;;;;;;;;;5086155;28;20210;-61
2023/06/03 10:51:31;;;;;;;2.58;1.45;;;;;;;;;;5087806;28;20213;-61
2023/06/03 10:54:05;;;;;;;1.92;1.80;;;;;;;;;;5087756;28;20209;-61
2023/06/03 10:56:33;;;;;;;1.35;1.35;;;;;;;;;;5090070;28;20255;-60
2023/06/03 10:59:02;;;;;;;1.60;1.60;;;;;;;;;;5088336;28;20298;-61
2023/06/03 11:01:43;;;;;;;1.52;1.42;;;;;;;;;;5090174;28;20586;-59
2023/06/03 11:04:18;;;;;;;1.70;1.60;;;;;;;;;;5084018;28;20676;-59
2023/06/03 11:06:46;;;;;;;2.08;1.77;;;;;;;;;;5090953;28;20711;-60
2023/06/03 11:09:16;;;;;;;1.52;1.42;;;;;;;;;;5088646;28;20253;-65
2023/06/03 11:12:03;;;;;;;1.40;1.40;;;;;;;;;;5084993;28;20210;-60
2023/06/03 11:14:49;;;;;;;1.77;1.67;;;;;;;;;;5085407;28;20230;-60
2023/06/03 11:17:18;;;;;;;1.52;1.40;;;;;;;;;;5086679;28;20316;-60
2023/06/03 11:19:49;;;;;;;3.80;1.48;;;;;;;;;;5076077;28;20223;-60
2023/06/03 11:22:39;;;;;;;2.50;1.50;;;;;;;;;;5089589;28;20206;-60
2023/06/03 11:25:06;;;;;;;1.80;1.58;;;;;;;;;;5090095;28;20220;-60
2023/06/03 11:27:33;;;;;;;1.55;1.45;;;;;;;;;;5089339;28;20671;-60
2023/06/03 11:30:02;;;;;;;1.38;1.38;;;;;;;;;;5090240;28;20206;-60
2023/06/03 11:32:29;;;;;;;2.30;1.90;;;;;;;;;;5089354;28;20213;-60
2023/06/03 11:35:11;;;;;;;5.53;1.52;;;;;;;;;;5073307;28;20209;-60
2023/06/03 11:37:53;;;;;;;1.40;1.40;;;;;;;;;;5083102;28;20263;-57
2023/06/03 11:40:21;;;;;;;1.38;1.38;;;;;;;;;;5090336;28;20864;-58
2023/06/03 11:43:07;;;;;;;3.63;1.75;;;;;;;;;;5084408;28;20281;-59
2023/06/03 11:45:36;;;;;;;1.80;1.70;;;;;;;;;;5087715;28;20220;-58
2023/06/03 11:48:05;;;;;;;1.67;1.58;;;;;;;;;;5087317;28;20226;-58
2023/06/03 11:50:45;;;;;;;1.80;1.63;;;;;;;;;;5074057;28;20203;-59
2023/06/03 11:53:27;;;;;;;1.50;1.40;;;;;;;;;;5073240;28;20213;-59
2023/06/03 11:56:01;;;;;;;1.60;1.50;;;;;;;;;;5087139;28;20206;-60
2023/06/03 11:58:28;;;;;;;1.70;1.60;;;;;;;;;;5087946;28;20279;-60
2023/06/03 12:01:05;;;;;;;1.40;1.40;;;;;;;;;;5083099;28;20283;-60
2023/06/03 12:03:32;;;;;;;2.53;1.40;;;;;;;;;;5075048;28;20292;-62
2023/06/03 12:06:01;;;;;;;1.83;1.73;;;;;;;;;;5088188;28;20664;-59
2023/06/03 12:08:42;;;;;;;1.40;1.40;;;;;;;;;;5086975;28;20222;-59
2023/06/03 12:11:10;;;;;;;2.17;1.50;;;;;;;;;;5080047;28;20263;-59
2023/06/03 12:13:41;;;;;;;3.08;1.40;;;;;;;;;;5076935;28;20297;-59
2023/06/03 12:16:08;;;;;;;1.90;1.80;;;;;;;;;;5086193;28;20332;-59
2023/06/03 12:18:35;;;;;;;2.08;1.92;;;;;;;;;;5072751;28;20347;-59
2023/06/03 12:21:17;;;;;;;3.83;1.73;;;;;;;;;;5067557;28;20318;-60
2023/06/03 12:23:45;;;;;;;1.55;1.55;;;;;;;;;;5070269;28;20268;-59
2023/06/03 12:26:13;;;;;;;2.63;1.80;;;;;;;;;;5072785;28;20218;-60
2023/06/03 12:28:40;;;;;;;1.38;1.27;;;;;;;;;;5088278;28;20202;-59
2023/06/03 12:31:12;;;;;;;1.42;1.33;;;;;;;;;;5089477;28;20214;-59
2023/06/03 12:33:42;;;;;;;1.90;1.80;;;;;;;;;;5089767;28;20262;-60
2023/06/03 12:36:09;;;;;;;4.22;1.90;;;;;;;;;;5089718;28;20210;-60
2023/06/03 12:38:52;;;;;;;0.90;0.90;;;;;;;;;;5089221;28;20292;-62
2023/06/03 12:41:20;;;;;;;1.60;1.60;;;;;;;;;;5101727;28;20334;-60
2023/06/03 12:43:48;;;;;;;1.65;1.55;;;;;;;;;;5088973;28;20249;-59
2023/06/03 12:46:17;;;;;;;1.70;1.60;;;;;;;;;;5089364;28;20218;-59
2023/06/03 12:48:45;;;;;;;4.78;1.60;;;;;;;;;;5072801;28;20253;-59
2023/06/03 12:51:25;;;;;;;3.08;1.65;;;;;;;;;;5069048;28;20211;-60
2023/06/03 12:53:55;;;;;;;1.83;1.77;;;;;;;;;;5072609;28;20248;-59
2023/06/03 12:56:24;;;;;;;1.48;1.38;;;;;;;;;;5085396;28;20218;-59
2023/06/03 12:58:51;;;;;;;2.17;2.00;;;;;;;;;;5077542;28;20301;-60
2023/06/03 13:01:18;;;;;;;1.52;1.52;;;;;;;;;;5085059;28;20257;-60
2023/06/03 13:03:45;;;;;;;3.10;1.60;;;;;;;;;;5086225;28;20255;-60
2023/06/03 13:06:12;;;;;;;4.35;1.75;;;;;;;;;;5088286;28;20210;-59
2023/06/03 13:08:56;;;;;;;1.40;1.38;;;;;;;;;;5082650;28;20297;-61
2023/06/03 13:11:25;;;;;;;3.45;0.82;;;;;;;;;;5096752;28;20221;-60
2023/06/03 13:13:52;;;;;;;1.70;1.40;;;;;;;;;;5088000;28;20708;-60
2023/06/03 13:16:19;;;;;;;1.83;1.52;;;;;;;;;;5088413;28;20210;-59
2023/06/03 13:18:46;;;;;;;1.67;1.58;;;;;;;;;;5088070;28;20287;-59
2023/06/03 13:21:13;;;;;;;1.75;1.63;;;;;;;;;;5088141;28;20729;-59
2023/06/03 13:23:40;;;;;;;2.25;2.15;;;;;;;;;;5088402;28;20267;-60
2023/06/03 13:26:07;;;;;;;1.33;1.30;;;;;;;;;;5088113;28;20637;-60
2023/06/03 13:28:37;;;;;;;1.60;1.40;;;;;;;;;;5088329;28;20276;-60
2023/06/03 13:31:04;;;;;;;2.67;1.85;;;;;;;;;;5088411;28;20263;-60
2023/06/03 13:33:32;;;;;;;1.77;1.67;;;;;;;;;;5088041;28;20235;-59
2023/06/03 13:35:59;;;;;;;2.17;2.05;;;;;;;;;;5084284;28;20221;-60
2023/06/03 13:38:26;;;;;;;1.77;1.67;;;;;;;;;;5080287;28;20206;-59
2023/06/03 13:40:53;;;;;;;1.40;1.40;;;;;;;;;;5100060;28;20237;-59
2023/06/03 13:43:20;;;;;;;2.17;1.95;;;;;;;;;;5087724;28;20328;-59
2023/06/03 13:45:48;;;;;;;1.40;1.40;;;;;;;;;;5083077;28;20260;-59
2023/06/03 13:48:16;;;;;;;1.48;1.48;;;;;;;;;;5067236;28;20210;-59
2023/06/03 13:50:44;;;;;;;1.58;1.48;;;;;;;;;;5067371;28;20211;-59
2023/06/03 13:53:11;;;;;;;2.65;1.58;;;;;;;;;;5067584;28;20272;-59
2023/06/03 13:55:38;;;;;;;1.70;1.70;;;;;;;;;;5066826;28;20299;-59
2023/06/03 13:58:05;;;;;;;2.05;1.70;;;;;;;;;;5078331;28;20210;-59
2023/06/03 14:00:32;;;;;;;1.65;1.55;;;;;;;;;;5087636;28;20252;-59
2023/06/03 14:03:00;;;;;;;6.32;1.73;;;;;;;;;;5087733;28;20266;-60
2023/06/03 14:05:27;;;;;;;1.20;1.20;;;;;;;;;;5087389;28;20209;-58
2023/06/03 14:07:54;;;;;;;1.80;1.70;;;;;;;;;;5087394;28;20263;-59
2023/06/03 14:10:22;;;;;;;1.60;1.50;;;;;;;;;;5082554;28;20218;-59
2023/06/03 14:12:49;;;;;;;1.50;1.50;;;;;;;;;;5080385;28;20283;-59
2023/06/03 14:15:16;;;;;;;3.75;1.80;;;;;;;;;;5087494;28;20619;-59
2023/06/03 14:17:43;;;;;;;1.42;1.35;;;;;;;;;;5070327;28;20688;-59
2023/06/03 14:20:12;;;;;;;1.50;1.20;;;;;;;;;;5066975;28;20239;-59
2023/06/03 14:22:39;;;;;;;1.52;1.20;;;;;;;;;;5067529;28;20203;-58
2023/06/03 14:25:06;;;;;;;1.67;1.30;;;;;;;;;;5067221;28;20230;-59
2023/06/03 14:27:33;;;;;;;1.52;1.42;;;;;;;;;;5067111;28;20215;-59
2023/06/03 14:30:00;;;;;;;2.75;1.70;;;;;;;;;;5084914;28;20210;-59
2023/06/03 14:32:27;;;;;;;1.77;1.77;;;;;;;;;;5087186;28;20209;-59
2023/06/03 14:34:54;;;;;;;1.75;1.65;;;;;;;;;;5086900;28;20233;-59
2023/06/03 14:37:46;;;;;;;3.72;1.45;;;;;;;;;;5086556;28;20300;-60
2023/06/03 14:40:14;;;;;;;1.63;1.55;;;;;;;;;;5086328;28;20230;-59
2023/06/03 14:42:42;;;;;;;1.67;1.58;;;;;;;;;;5086198;28;20241;-59
2023/06/03 14:45:09;;;;;;;1.75;1.65;;;;;;;;;;5086645;28;20218;-59
2023/06/03 14:47:36;;;;;;;2.13;1.38;;;;;;;;;;5086295;28;20206;-59
2023/06/03 14:50:03;;;;;;;2.40;1.17;;;;;;;;;;5083124;28;20263;-60
2023/06/03 14:52:30;;;;;;;2.00;1.83;;;;;;;;;;5064932;28;20214;-59